Nearby METAR Reports

 

KAUS - Austin, Texas, USA
Distance from station: WNW 16mi, 26km
Updated: Sun, 26-May-2024 9:53pm CDT
Mostly cloudy
Mostly cloudy
 Wind from S
Wind: S 7 mph , 11 km/h
Temperature: 84°F , 29°C
Heat Index: 94°F , 34°C
Dew Point: 77°F , 25°C
Humidity: 79%
Barometer: 29.75 inHg , 1007.5 hPa
Clouds: Mostly cloudy
Visibility: 10 miles , 16 km
Cloud details: Partly cloudy 3500 ft
Mostly cloudy 15000 ft
2024/05/27 02:53 KAUS 270253Z 18006KT 10SM SCT035 BKN150 29/25 A2975 RMK AO2 SLP063 T02940250 53019 $
KEDC - Austin Exec, Texas, USA
Distance from station: NNW 21mi, 34km
Updated: Sun, 26-May-2024 10:35pm CDT
Mist, Partly cloudy
Mist, Partly cloudy
 Wind from calm
Wind: Calm
Temperature: 82°F , 28°C
Heat Index: 93°F , 34°C
Dew Point: 81°F , 27°C
Humidity: 94%
Barometer: 29.78 inHg , 1008.5 hPa
Summary: Mist
Clouds: Partly cloudy
Visibility: 5 miles , 8 km
Cloud details: Partly cloudy 3700 ft
Partly cloudy 4800 ft
2024/05/27 03:35 KEDC 270335Z AUTO 00000KT 5SM BR SCT037 SCT048 28/27 A2978 RMK AO2
 
KATT - Austin/Mabry, Texas, USA
Distance from station: NW 25mi, 39km
Updated: Sun, 26-May-2024 9:51pm CDT
Clear
Clear
 Wind from varies
Wind: varies 3 mph , 6 km/h
Temperature: 88°F , 31°C
Heat Index: 98°F , 37°C
Dew Point: 75°F , 24°C
Humidity: 66%
Barometer: 29.78 inHg , 1008.5 hPa
Clouds: Clear
Visibility: 7 miles , 11 km
2024/05/27 02:51 KATT 270251Z AUTO VRB03KT 7SM CLR 31/24 A2978 RMK AO2 SLP067 T03110239 53019 $
KGYB - Giddings-Lee, Texas, USA
Distance from station: E 27mi, 43km
Updated: Sun, 26-May-2024 10:35pm CDT
Clear
Clear
 
Temperature: 82°F , 28°C
Heat Index: 90°F , 32°C
Dew Point: 77°F , 25°C
Humidity: 84%
Barometer: 29.83 inHg , 1010.2 hPa
Clouds: Clear
Visibility: 7 miles , 11 km
2024/05/27 03:35 KGYB 270335Z 7SM CLR 28/25 A2983 RMK AO2 T02770250
 
KHYI - San Marcos, Texas, USA
Distance from station: WSW 31mi, 49km
Updated: Sun, 26-May-2024 9:56pm CDT
Clear
Clear
 Wind from SSE
Wind: SSE 7 mph , 11 km/h
Temperature: 82°F , 28°C
Heat Index: 91°F , 33°C
Dew Point: 79°F , 26°C
Humidity: 89%
Barometer: 29.78 inHg , 1008.5 hPa
Clouds: Clear
Visibility: 10 miles , 16 km
2024/05/27 02:56 KHYI 270256Z AUTO 16006KT 10SM CLR 28/26 A2978 RMK AO2 SLP076 T02830256 53021
K3T5 - La Grange, Texas, USA
Distance from station: ESE 32mi, 52km
Updated: Sun, 26-May-2024 10:35pm CDT
Clear
Clear
 Wind from SSE
Wind: SSE 5 mph , 7 km/h
Temperature: 81°F , 27°C
Heat Index: 91°F , 33°C
Dew Point: 81°F , 27°C
Humidity: 100%
Barometer: 29.78 inHg , 1008.5 hPa
Clouds: Clear
Visibility: 10 miles , 16 km
2024/05/27 03:35 K3T5 270335Z AUTO 16004KT 10SM CLR 27/27 A2978 RMK AO2 T02740274 $
 
KT20 - Gonzales Muni, Texas, USA
Distance from station: S 41mi, 67km
Updated: Sun, 26-May-2024 10:35pm CDT
Clear
Clear
 Wind from SSE
Wind: SSE 6 mph , 9 km/h
Temperature: 82°F , 28°C
Heat Index: 91°F , 33°C
Dew Point: 79°F , 26°C
Humidity: 89%
Barometer: 29.79 inHg , 1008.8 hPa
Clouds: Clear
Visibility: 10 miles , 16 km
2024/05/27 03:35 KT20 270335Z AUTO 15005KT 10SM CLR 28/26 A2979 RMK AO2 T02830258
KRYW - Lago Vista, Texas, USA
Distance from station: NW 42mi, 67km
Updated: Sun, 26-May-2024 10:35pm CDT
Clear
Clear
 Wind from S
Wind: S 6 mph , 9 km/h
Temperature: 84°F , 29°C
Heat Index: 92°F , 33°C
Dew Point: 75°F , 24°C
Humidity: 74%
Barometer: 29.84 inHg , 1010.5 hPa
Clouds: Clear
Visibility: 7 miles , 11 km
2024/05/27 03:35 KRYW 270335Z AUTO 17005KT 7SM CLR 29/24 A2984 RMK AO2 T02920237
 
KGTU - Georgetown, Texas, USA
Distance from station: NNW 42mi, 68km
Updated: Sun, 26-May-2024 9:56pm CDT
Clear
Clear
 Wind from SSE
Wind: SSE 5 mph , 7 km/h
Temperature: 86°F , 30°C
Heat Index: 95°F , 35°C
Dew Point: 75°F , 24°C
Humidity: 70%
Barometer: 29.79 inHg , 1008.8 hPa
Clouds: Clear
Visibility: 7 miles , 11 km
2024/05/27 02:56 KGTU 270256Z 15004KT 7SM CLR 30/24 A2979 RMK AO2 SLP079 T03000239 53018
KBAZ - New Braunfels, Texas, USA
Distance from station: SW 46mi, 74km
Updated: Sun, 26-May-2024 9:51pm CDT
Overcast
Overcast
 Wind from S
Wind: S 8 mph , 13 km/h
Temperature: 86°F , 30°C
Heat Index: 99°F , 37°C
Dew Point: 79°F , 26°C
Humidity: 79%
Barometer: 29.76 inHg , 1007.8 hPa
Clouds: Overcast
Visibility: 8 miles , 13 km
Cloud details: Overcast 3300 ft
2024/05/27 02:51 KBAZ 270251Z AUTO 17007KT 8SM OVC033 30/26 A2976 RMK AO2 SLP066 T03000256 53020